createdAt,value
2019-02-12T00:00:24.130Z,7.34
2019-02-12T00:05:26.204Z,7.28
2019-02-12T00:10:28.286Z,7.37
2019-02-12T00:15:30.353Z,7.37
2019-02-12T00:20:32.454Z,7.39
2019-02-12T00:25:34.702Z,7.42
2019-02-12T00:30:36.818Z,7.53
2019-02-12T00:35:38.872Z,7.51
2019-02-12T00:40:43.533Z,7.58
2019-02-12T00:45:45.689Z,7.57
2019-02-12T00:50:47.796Z,7.64
2019-02-12T00:55:49.928Z,7.69
2019-02-12T01:00:52.043Z,7.73
2019-02-12T01:05:54.080Z,7.71
2019-02-12T01:10:57.300Z,7.73
2019-02-12T01:15:59.422Z,7.75
2019-02-12T01:21:01.494Z,7.67
2019-02-12T01:26:03.624Z,7.66
2019-02-12T01:31:05.717Z,7.59
2019-02-12T01:36:07.761Z,7.54
2019-02-12T01:41:09.842Z,7.50
2019-02-12T01:46:12.050Z,7.43
2019-02-12T01:51:14.121Z,7.43
2019-02-12T01:56:16.178Z,7.40
2019-02-12T02:01:18.264Z,7.39
2019-02-12T02:06:20.493Z,7.47
2019-02-12T02:11:22.634Z,7.40
2019-02-12T02:16:24.702Z,7.50
2019-02-12T02:21:27.182Z,7.56
2019-02-12T02:26:29.344Z,7.56
2019-02-12T02:31:31.425Z,7.51
2019-02-12T02:36:33.503Z,7.56
2019-02-12T02:41:35.622Z,7.56
2019-02-12T02:46:37.720Z,7.59
2019-02-12T02:51:39.877Z,7.64
2019-02-12T02:56:42.005Z,7.68
2019-02-12T03:01:43.982Z,7.65
2019-02-12T03:06:46.064Z,7.68
2019-02-12T03:11:48.117Z,7.66
2019-02-12T03:16:50.173Z,7.67
2019-02-12T03:21:52.291Z,7.63
2019-02-12T03:26:56.883Z,7.65
2019-02-12T03:31:59.141Z,7.57
2019-02-12T03:37:01.242Z,7.62
2019-02-12T03:42:03.521Z,7.61
2019-02-12T03:47:05.570Z,7.68
2019-02-12T03:52:13.014Z,7.55
2019-02-12T03:57:11.689Z,7.38
2019-02-12T04:02:13.749Z,7.32
2019-02-12T04:07:15.837Z,7.23
2019-02-12T04:12:19.008Z,7.26
2019-02-12T04:17:21.120Z,7.12
2019-02-12T04:22:23.425Z,7.19
2019-02-12T04:27:25.550Z,7.28
2019-02-12T04:32:27.652Z,7.38
2019-02-12T04:37:29.732Z,7.41
2019-02-12T04:42:31.830Z,7.49
2019-02-12T04:47:33.937Z,7.46
2019-02-12T04:52:35.972Z,7.50
2019-02-12T04:57:38.000Z,7.50
2019-02-12T05:02:40.065Z,7.48
2019-02-12T05:07:44.004Z,7.56
2019-02-12T05:12:46.038Z,7.67
2019-02-12T05:17:48.110Z,7.77
2019-02-12T05:22:50.182Z,7.80
2019-02-12T05:27:54.194Z,7.84
2019-02-12T05:32:58.522Z,7.83
2019-02-12T05:38:00.618Z,7.82
2019-02-12T05:43:04.821Z,7.71
2019-02-12T05:48:06.909Z,7.74
2019-02-12T05:53:08.998Z,7.77
2019-02-12T05:58:11.064Z,7.79
2019-02-12T06:03:13.206Z,7.84
2019-02-12T06:08:15.281Z,7.82
2019-02-12T06:13:17.320Z,7.86
2019-02-12T06:18:19.452Z,7.77
2019-02-12T06:23:21.535Z,7.79
2019-02-12T06:28:23.935Z,7.66
2019-02-12T06:33:25.967Z,7.59
2019-02-12T06:38:27.970Z,7.61
2019-02-12T06:43:30.112Z,7.46
2019-02-12T06:48:32.217Z,7.43
2019-02-12T06:53:34.397Z,7.37
2019-02-12T06:58:36.610Z,7.34
2019-02-12T07:03:56.307Z,7.41
2019-02-12T07:09:27.728Z,7.45
2019-02-12T07:14:50.296Z,7.44
2019-02-12T07:20:28.130Z,7.35
2019-02-12T07:26:05.397Z,7.35
2019-02-12T07:31:26.142Z,7.38
2019-02-12T07:37:14.514Z,7.38
2019-02-12T07:42:54.558Z,7.49
2019-02-12T07:48:14.144Z,7.61
2019-02-12T07:53:35.086Z,7.62
2019-02-12T07:59:10.163Z,7.73
2019-02-12T08:04:59.086Z,7.82
2019-02-12T08:10:49.383Z,7.82
2019-02-12T08:16:36.725Z,7.90
2019-02-12T08:22:44.931Z,8.01
2019-02-12T08:28:52.099Z,8.16
2019-02-12T08:34:46.898Z,8.12
2019-02-12T08:40:31.044Z,8.23
2019-02-12T08:46:12.139Z,8.24
2019-02-12T08:51:57.387Z,8.36
2019-02-12T08:57:26.461Z,8.36
2019-02-12T09:03:05.390Z,8.37
2019-02-12T09:08:41.563Z,8.48
2019-02-12T09:13:55.513Z,8.39
2019-02-12T09:19:37.018Z,8.73
2019-02-12T09:25:14.561Z,8.73
2019-02-12T09:30:37.699Z,8.79
2019-02-12T09:36:07.355Z,8.89
2019-02-12T09:41:27.664Z,8.99
2019-02-12T09:47:07.617Z,8.85
2019-02-12T09:52:27.813Z,8.96
2019-02-12T09:58:11.833Z,8.94
2019-02-12T10:04:00.871Z,9.07
2019-02-12T10:09:40.656Z,9.16
2019-02-12T10:15:04.677Z,9.24
2019-02-12T10:20:23.908Z,9.30
2019-02-12T10:25:38.116Z,9.45
2019-02-12T10:31:03.651Z,9.47
2019-02-12T10:36:05.849Z,9.47
2019-02-12T10:41:07.985Z,9.56
2019-02-12T10:46:10.098Z,9.68
2019-02-12T10:51:12.244Z,9.73
2019-02-12T10:56:14.428Z,9.76
2019-02-12T11:01:16.580Z,9.76
2019-02-12T11:06:18.667Z,9.76
2019-02-12T11:11:20.762Z,9.84
2019-02-12T11:16:22.859Z,10.04
2019-02-12T11:21:24.908Z,10.10
2019-02-12T11:26:27.027Z,10.06
2019-02-12T11:31:29.077Z,9.96
2019-02-12T11:36:31.315Z,9.86
2019-02-12T11:41:33.408Z,9.63
2019-02-12T11:46:35.466Z,9.42
2019-02-12T11:51:37.507Z,9.23
2019-02-12T11:56:39.776Z,9.10
2019-02-12T12:01:41.830Z,9.13
2019-02-12T12:06:43.974Z,9.11
2019-02-12T12:11:46.108Z,9.13
2019-02-12T12:16:48.159Z,9.16
2019-02-12T12:21:50.390Z,9.21
2019-02-12T12:26:52.492Z,9.29
2019-02-12T12:31:54.535Z,9.45
2019-02-12T12:36:56.600Z,9.58
2019-02-12T12:41:58.647Z,9.51
2019-02-12T12:47:00.708Z,9.58
2019-02-12T12:52:02.789Z,9.66
2019-02-12T12:57:04.880Z,9.86
2019-02-12T13:02:06.994Z,9.86
2019-02-12T13:07:09.070Z,9.91
2019-02-12T13:12:12.382Z,9.84
2019-02-12T13:17:14.555Z,9.92
2019-02-12T13:22:16.688Z,9.84
2019-02-12T13:27:18.770Z,9.90
2019-02-12T13:32:20.870Z,9.74
2019-02-12T13:37:22.989Z,9.82
2019-02-12T13:42:25.048Z,9.66
2019-02-12T13:47:27.106Z,9.60
2019-02-12T13:52:29.354Z,9.62
2019-02-12T13:57:31.398Z,9.60
2019-02-12T14:02:33.373Z,9.47
2019-02-12T14:07:37.627Z,9.53
2019-02-12T14:12:39.794Z,9.64
2019-02-12T14:17:41.861Z,9.68
2019-02-12T14:22:43.988Z,9.72
2019-02-12T14:27:46.106Z,9.86
2019-02-12T14:32:48.176Z,9.90
2019-02-12T14:37:50.262Z,9.93
2019-02-12T14:42:53.439Z,9.89
2019-02-12T14:47:57.320Z,9.79
2019-02-12T14:53:01.534Z,9.75
2019-02-12T14:58:03.613Z,9.82
2019-02-12T15:03:05.830Z,9.82
2019-02-12T15:08:07.944Z,9.87
2019-02-12T15:13:10.024Z,9.83
2019-02-12T15:18:12.154Z,9.86
2019-02-12T15:23:14.245Z,9.87
2019-02-12T15:28:16.441Z,9.85
2019-02-12T15:33:18.624Z,9.76
2019-02-12T15:38:20.696Z,9.77
2019-02-12T15:43:22.809Z,9.69
2019-02-12T15:48:24.886Z,9.61
2019-02-12T15:53:27.011Z,9.58
2019-02-12T15:58:30.289Z,9.61
2019-02-12T16:03:34.021Z,9.58
2019-02-12T16:08:36.539Z,9.57
2019-02-12T16:13:38.619Z,9.57
2019-02-12T16:18:40.791Z,9.59
2019-02-12T16:23:42.928Z,9.58
2019-02-12T16:28:45.023Z,9.57
2019-02-12T16:33:47.104Z,9.52
2019-02-12T16:38:50.543Z,9.36
2019-02-12T16:43:52.685Z,9.26
2019-02-12T16:48:57.565Z,9.17
2019-02-12T16:53:59.798Z,9.15
2019-02-12T16:59:03.796Z,9.05
2019-02-12T17:04:06.238Z,9.05
2019-02-12T17:09:08.311Z,9.03
2019-02-12T17:14:10.410Z,9.04
2019-02-12T17:19:12.490Z,9.02
2019-02-12T17:24:14.554Z,8.98
2019-02-12T17:29:16.651Z,8.92
2019-02-12T17:34:18.862Z,8.89
2019-02-12T17:39:20.947Z,8.92
2019-02-12T17:44:23.053Z,8.91
2019-02-12T17:49:25.155Z,8.90
2019-02-12T17:54:27.541Z,8.81
2019-02-12T17:59:29.632Z,8.73
2019-02-12T18:04:33.850Z,8.60
2019-02-12T18:09:35.887Z,8.52
2019-02-12T18:14:37.914Z,8.50
2019-02-12T18:19:40.065Z,8.47
2019-02-12T18:24:42.143Z,8.43
2019-02-12T18:29:46.490Z,8.31
2019-02-12T18:34:48.733Z,8.29
2019-02-12T18:39:50.794Z,8.23
2019-02-12T18:44:52.867Z,8.16
2019-02-12T18:49:54.940Z,8.10
2019-02-12T18:54:57.073Z,8.01
2019-02-12T18:59:59.264Z,7.91
2019-02-12T19:05:01.348Z,7.90
2019-02-12T19:10:03.513Z,7.86
2019-02-12T19:15:08.784Z,7.82
2019-02-12T19:20:12.584Z,7.77
2019-02-12T19:25:16.120Z,7.66
2019-02-12T19:30:19.416Z,7.62
2019-02-12T19:35:21.595Z,7.57
2019-02-12T19:40:23.652Z,7.57
2019-02-12T19:45:28.150Z,7.59
2019-02-12T19:50:30.221Z,7.69
2019-02-12T19:55:32.298Z,7.74
2019-02-12T20:00:34.427Z,7.80
2019-02-12T20:05:36.659Z,7.84
2019-02-12T20:10:38.697Z,7.87
2019-02-12T20:15:42.007Z,7.92
2019-02-12T20:20:44.113Z,7.95
2019-02-12T20:25:47.928Z,7.97
2019-02-12T20:30:52.908Z,7.87
2019-02-12T20:35:54.945Z,7.96
2019-02-12T20:40:57.003Z,8.07
2019-02-12T20:45:59.162Z,8.16
2019-02-12T20:51:01.341Z,8.17
2019-02-12T20:56:03.540Z,8.15
2019-02-12T21:01:11.047Z,8.21
2019-02-12T21:06:13.163Z,8.30
2019-02-12T21:11:15.304Z,8.33
2019-02-12T21:16:17.410Z,8.29
2019-02-12T21:21:19.470Z,8.25
2019-02-12T21:26:21.533Z,8.26
2019-02-12T21:31:23.595Z,8.35
2019-02-12T21:36:25.651Z,8.31
2019-02-12T21:41:27.735Z,8.30
2019-02-12T21:46:29.797Z,8.41
2019-02-12T21:51:31.883Z,8.39
2019-02-12T21:56:34.000Z,8.29
2019-02-12T22:01:36.170Z,8.28
2019-02-12T22:06:38.354Z,8.34
2019-02-12T22:11:40.517Z,8.20
2019-02-12T22:16:42.654Z,8.27
2019-02-12T22:21:44.685Z,8.24
2019-02-12T22:26:46.745Z,8.29
2019-02-12T22:31:48.869Z,8.19
2019-02-12T22:36:50.977Z,8.09
2019-02-12T22:41:53.075Z,8.16
2019-02-12T22:46:55.132Z,8.16
2019-02-12T22:51:58.303Z,8.13
2019-02-12T22:57:00.669Z,8.16
2019-02-12T23:02:02.901Z,8.18
2019-02-12T23:07:05.377Z,8.21
2019-02-12T23:12:07.674Z,8.19
2019-02-12T23:17:09.709Z,8.16
2019-02-12T23:22:14.225Z,8.17
2019-02-12T23:27:16.481Z,8.21
2019-02-12T23:32:18.530Z,8.26
2019-02-12T23:37:22.425Z,8.39
2019-02-12T23:42:24.504Z,8.40
2019-02-12T23:47:26.573Z,8.39
2019-02-12T23:52:28.684Z,8.42
2019-02-12T23:57:30.782Z,8.40
